To NAV CANADA Home Page Login to a new session Search on AWWS site Feedback and Comments Disclaimer Vers la page française équivalente Tips FAQ What's new on the site To the Forecasts and Observations / NOTAM section To "File a Flight Plan" website Publications and other links Update of the User's profile FIC Telephone Numbers My Weather Data Folder Route Weather Data Regional Weather Data Local Weather Data To the Forecasts and Observations / NOTAM section
Request Generated 02/28/2015 at 05:19:04 UTC . Weather information available at that time is displayed.

METAR/TAF

BRANDON/BRANDON MUNICIPALITY/MB    

METAR CYBR 280500Z 00000KT 15SM BKN200 M22/M25 A3018 RMK CS6 SLP269=
METAR CYBR 280400Z 01002KT 15SM OVC200 M21/M24 A3019 RMK CS8 SLP274=
METAR CYBR 280300Z 30003KT 15SM OVC220 M19/M22 A3020 RMK CS8 SLP277=

TAF CYBR 272338Z 2800/2812 22006KT P6SM OVC240
FM280600 VRB03KT P6SM SCT060
RMK NXT FCST BY 280600Z=
Your time UTC time
Weather data provided by Environment Canada and NAV CANADA